sensor_id;sensor_type;location;lat;lon;timestamp;temperature;humidity
20349;DHT22;10332;50.208;18.988;2022-07-29T00:01:50;17.50;94.20
20349;DHT22;10332;50.208;18.988;2022-07-29T00:04:19;17.50;94.50
20349;DHT22;10332;50.208;18.988;2022-07-29T00:06:47;17.50;94.80
20349;DHT22;10332;50.208;18.988;2022-07-29T00:09:15;17.50;94.90
20349;DHT22;10332;50.208;18.988;2022-07-29T00:11:42;17.50;95.00
20349;DHT22;10332;50.208;18.988;2022-07-29T00:14:10;17.50;94.90
20349;DHT22;10332;50.208;18.988;2022-07-29T00:16:37;17.40;95.10
20349;DHT22;10332;50.208;18.988;2022-07-29T00:19:05;17.40;95.40
20349;DHT22;10332;50.208;18.988;2022-07-29T00:21:33;17.40;95.50
20349;DHT22;10332;50.208;18.988;2022-07-29T00:24:01;17.40;95.30
20349;DHT22;10332;50.208;18.988;2022-07-29T00:26:29;17.40;95.50
20349;DHT22;10332;50.208;18.988;2022-07-29T00:28:59;17.40;95.60
20349;DHT22;10332;50.208;18.988;2022-07-29T00:31:47;17.40;95.60
20349;DHT22;10332;50.208;18.988;2022-07-29T00:34:15;17.40;95.90
20349;DHT22;10332;50.208;18.988;2022-07-29T00:37:01;17.30;96.10
20349;DHT22;10332;50.208;18.988;2022-07-29T00:39:29;17.30;96.20
20349;DHT22;10332;50.208;18.988;2022-07-29T00:41:56;17.30;96.40
20349;DHT22;10332;50.208;18.988;2022-07-29T00:44:24;17.20;96.60
20349;DHT22;10332;50.208;18.988;2022-07-29T00:46:51;17.20;96.60
20349;DHT22;10332;50.208;18.988;2022-07-29T00:49:19;17.10;96.50
20349;DHT22;10332;50.208;18.988;2022-07-29T00:51:48;17.20;96.60
20349;DHT22;10332;50.208;18.988;2022-07-29T00:54:16;17.20;96.60
20349;DHT22;10332;50.208;18.988;2022-07-29T00:56:44;17.20;96.70
20349;DHT22;10332;50.208;18.988;2022-07-29T00:59:12;17.10;96.80
20349;DHT22;10332;50.208;18.988;2022-07-29T01:01:39;17.10;96.50
20349;DHT22;10332;50.208;18.988;2022-07-29T01:04:07;17.10;96.70
20349;DHT22;10332;50.208;18.988;2022-07-29T01:06:34;17.10;96.70
20349;DHT22;10332;50.208;18.988;2022-07-29T01:09:02;17.00;96.90
20349;DHT22;10332;50.208;18.988;2022-07-29T01:11:30;17.00;97.10
20349;DHT22;10332;50.208;18.988;2022-07-29T01:13:59;16.90;96.80
20349;DHT22;10332;50.208;18.988;2022-07-29T01:16:32;17.00;96.80
20349;DHT22;10332;50.208;18.988;2022-07-29T01:19:52;16.90;96.70
20349;DHT22;10332;50.208;18.988;2022-07-29T01:31:45;16.80;95.90
20349;DHT22;10332;50.208;18.988;2022-07-29T01:37:30;16.80;95.80
20349;DHT22;10332;50.208;18.988;2022-07-29T01:39:59;16.80;95.80
20349;DHT22;10332;50.208;18.988;2022-07-29T01:42:39;16.70;95.80
20349;DHT22;10332;50.208;18.988;2022-07-29T01:45:30;16.70;95.70
20349;DHT22;10332;50.208;18.988;2022-07-29T01:48:27;16.70;95.80
20349;DHT22;10332;50.208;18.988;2022-07-29T01:51:51;16.70;95.60
20349;DHT22;10332;50.208;18.988;2022-07-29T01:54:35;16.70;95.50
20349;DHT22;10332;50.208;18.988;2022-07-29T01:57:08;16.70;95.00
20349;DHT22;10332;50.208;18.988;2022-07-29T01:59:38;16.70;94.70
20349;DHT22;10332;50.208;18.988;2022-07-29T02:02:11;16.70;94.60
20349;DHT22;10332;50.208;18.988;2022-07-29T02:04:43;16.70;94.30
20349;DHT22;10332;50.208;18.988;2022-07-29T02:07:19;16.70;94.40
20349;DHT22;10332;50.208;18.988;2022-07-29T02:09:49;16.70;94.10
20349;DHT22;10332;50.208;18.988;2022-07-29T02:12:18;16.70;94.00
20349;DHT22;10332;50.208;18.988;2022-07-29T02:14:50;16.70;93.90
20349;DHT22;10332;50.208;18.988;2022-07-29T02:17:44;16.70;93.80
20349;DHT22;10332;50.208;18.988;2022-07-29T02:20:18;16.70;93.80
20349;DHT22;10332;50.208;18.988;2022-07-29T02:22:46;16.70;93.50
20349;DHT22;10332;50.208;18.988;2022-07-29T02:25:17;16.70;93.60
20349;DHT22;10332;50.208;18.988;2022-07-29T02:27:45;16.60;93.50
20349;DHT22;10332;50.208;18.988;2022-07-29T02:30:15;16.70;93.30
20349;DHT22;10332;50.208;18.988;2022-07-29T02:32:43;16.60;93.20
20349;DHT22;10332;50.208;18.988;2022-07-29T02:35:14;16.60;93.10
20349;DHT22;10332;50.208;18.988;2022-07-29T02:37:44;16.60;93.00
20349;DHT22;10332;50.208;18.988;2022-07-29T02:40:34;16.60;92.90
20349;DHT22;10332;50.208;18.988;2022-07-29T02:43:06;16.50;92.80
20349;DHT22;10332;50.208;18.988;2022-07-29T02:45:34;16.50;92.70
20349;DHT22;10332;50.208;18.988;2022-07-29T02:48:08;16.50;92.60
20349;DHT22;10332;50.208;18.988;2022-07-29T02:50:49;16.60;92.40
20349;DHT22;10332;50.208;18.988;2022-07-29T02:53:22;16.60;92.30
20349;DHT22;10332;50.208;18.988;2022-07-29T02:55:57;16.60;92.30
20349;DHT22;10332;50.208;18.988;2022-07-29T02:58:39;16.60;92.50
20349;DHT22;10332;50.208;18.988;2022-07-29T03:01:25;16.60;92.20
20349;DHT22;10332;50.208;18.988;2022-07-29T03:04:01;16.70;92.10
20349;DHT22;10332;50.208;18.988;2022-07-29T03:06:33;16.70;91.90
20349;DHT22;10332;50.208;18.988;2022-07-29T03:09:06;16.70;91.80
20349;DHT22;10332;50.208;18.988;2022-07-29T03:11:40;16.80;91.70
20349;DHT22;10332;50.208;18.988;2022-07-29T03:14:20;16.80;91.50
20349;DHT22;10332;50.208;18.988;2022-07-29T03:16:50;16.90;91.30
20349;DHT22;10332;50.208;18.988;2022-07-29T03:19:19;16.90;91.40
20349;DHT22;10332;50.208;18.988;2022-07-29T03:21:47;16.90;91.30
20349;DHT22;10332;50.208;18.988;2022-07-29T03:24:26;16.90;91.40
20349;DHT22;10332;50.208;18.988;2022-07-29T03:26:59;16.90;91.30
20349;DHT22;10332;50.208;18.988;2022-07-29T03:29:28;16.90;91.30
20349;DHT22;10332;50.208;18.988;2022-07-29T03:32:01;16.90;91.20
20349;DHT22;10332;50.208;18.988;2022-07-29T03:34:35;16.90;91.20
20349;DHT22;10332;50.208;18.988;2022-07-29T03:37:05;16.90;91.30
20349;DHT22;10332;50.208;18.988;2022-07-29T03:39:38;16.90;91.30
20349;DHT22;10332;50.208;18.988;2022-07-29T03:42:10;16.90;91.30
20349;DHT22;10332;50.208;18.988;2022-07-29T03:44:43;16.90;91.50
20349;DHT22;10332;50.208;18.988;2022-07-29T03:47:14;17.00;91.40
20349;DHT22;10332;50.208;18.988;2022-07-29T03:49:46;17.00;91.20
20349;DHT22;10332;50.208;18.988;2022-07-29T03:52:17;17.00;91.10
20349;DHT22;10332;50.208;18.988;2022-07-29T03:54:44;17.00;91.10
20349;DHT22;10332;50.208;18.988;2022-07-29T03:57:13;17.10;91.10
20349;DHT22;10332;50.208;18.988;2022-07-29T03:59:43;17.20;91.30
20349;DHT22;10332;50.208;18.988;2022-07-29T04:02:11;17.20;90.70
20349;DHT22;10332;50.208;18.988;2022-07-29T04:04:43;17.30;90.60
20349;DHT22;10332;50.208;18.988;2022-07-29T04:07:14;17.40;90.50
20349;DHT22;10332;50.208;18.988;2022-07-29T04:10:00;17.40;90.30
20349;DHT22;10332;50.208;18.988;2022-07-29T04:12:28;17.50;90.30
20349;DHT22;10332;50.208;18.988;2022-07-29T04:14:55;17.60;90.30
20349;DHT22;10332;50.208;18.988;2022-07-29T04:17:23;17.60;90.30
20349;DHT22;10332;50.208;18.988;2022-07-29T04:19:50;17.70;90.20
20349;DHT22;10332;50.208;18.988;2022-07-29T04:22:17;17.70;89.90
20349;DHT22;10332;50.208;18.988;2022-07-29T04:24:44;17.80;89.90
20349;DHT22;10332;50.208;18.988;2022-07-29T04:27:12;17.90;89.90
20349;DHT22;10332;50.208;18.988;2022-07-29T04:29:39;17.80;89.70
20349;DHT22;10332;50.208;18.988;2022-07-29T04:32:22;17.90;89.90
20349;DHT22;10332;50.208;18.988;2022-07-29T04:34:49;18.00;90.00
20349;DHT22;10332;50.208;18.988;2022-07-29T04:37:17;18.10;89.90
20349;DHT22;10332;50.208;18.988;2022-07-29T04:39:44;18.20;89.40
20349;DHT22;10332;50.208;18.988;2022-07-29T04:42:11;18.20;89.30
20349;DHT22;10332;50.208;18.988;2022-07-29T04:44:39;18.20;89.50
20349;DHT22;10332;50.208;18.988;2022-07-29T04:47:09;18.30;89.50
20349;DHT22;10332;50.208;18.988;2022-07-29T04:49:39;18.30;90.20
20349;DHT22;10332;50.208;18.988;2022-07-29T04:52:06;18.40;89.60
20349;DHT22;10332;50.208;18.988;2022-07-29T04:54:34;18.40;90.00
20349;DHT22;10332;50.208;18.988;2022-07-29T04:57:01;18.40;89.90
20349;DHT22;10332;50.208;18.988;2022-07-29T04:59:29;18.30;90.00
20349;DHT22;10332;50.208;18.988;2022-07-29T05:01:56;18.40;90.10
20349;DHT22;10332;50.208;18.988;2022-07-29T05:04:24;18.40;90.30
20349;DHT22;10332;50.208;18.988;2022-07-29T05:06:51;18.50;90.20
20349;DHT22;10332;50.208;18.988;2022-07-29T05:09:18;18.60;89.90
20349;DHT22;10332;50.208;18.988;2022-07-29T05:11:46;18.70;89.80
20349;DHT22;10332;50.208;18.988;2022-07-29T05:14:13;18.80;89.50
20349;DHT22;10332;50.208;18.988;2022-07-29T05:16:41;18.80;89.10
20349;DHT22;10332;50.208;18.988;2022-07-29T05:19:10;18.90;88.80
20349;DHT22;10332;50.208;18.988;2022-07-29T05:21:40;18.90;89.10
20349;DHT22;10332;50.208;18.988;2022-07-29T05:24:08;18.90;89.20
20349;DHT22;10332;50.208;18.988;2022-07-29T05:26:35;19.00;89.00
20349;DHT22;10332;50.208;18.988;2022-07-29T05:29:03;19.00;89.20
20349;DHT22;10332;50.208;18.988;2022-07-29T05:31:30;19.00;89.20
20349;DHT22;10332;50.208;18.988;2022-07-29T05:33:57;19.10;89.60
20349;DHT22;10332;50.208;18.988;2022-07-29T05:36:25;19.10;89.60
20349;DHT22;10332;50.208;18.988;2022-07-29T05:38:52;19.20;89.80
20349;DHT22;10332;50.208;18.988;2022-07-29T05:41:20;19.20;89.60
20349;DHT22;10332;50.208;18.988;2022-07-29T05:43:47;19.30;89.80
20349;DHT22;10332;50.208;18.988;2022-07-29T05:46:15;19.40;89.80
20349;DHT22;10332;50.208;18.988;2022-07-29T05:48:42;19.50;89.70
20349;DHT22;10332;50.208;18.988;2022-07-29T05:51:10;19.60;89.30
20349;DHT22;10332;50.208;18.988;2022-07-29T05:53:37;19.70;88.90
20349;DHT22;10332;50.208;18.988;2022-07-29T05:56:05;19.80;88.60
20349;DHT22;10332;50.208;18.988;2022-07-29T05:58:33;20.00;88.30
20349;DHT22;10332;50.208;18.988;2022-07-29T06:01:00;20.10;88.20
20349;DHT22;10332;50.208;18.988;2022-07-29T06:03:28;20.20;87.70
20349;DHT22;10332;50.208;18.988;2022-07-29T06:05:56;20.30;87.90
20349;DHT22;10332;50.208;18.988;2022-07-29T06:08:23;20.30;87.40
20349;DHT22;10332;50.208;18.988;2022-07-29T06:10:50;20.40;87.50
20349;DHT22;10332;50.208;18.988;2022-07-29T06:13:18;20.50;87.30
20349;DHT22;10332;50.208;18.988;2022-07-29T06:15:45;20.50;87.30
20349;DHT22;10332;50.208;18.988;2022-07-29T06:18:13;20.60;87.10
20349;DHT22;10332;50.208;18.988;2022-07-29T06:20:40;20.70;87.00
20349;DHT22;10332;50.208;18.988;2022-07-29T06:23:08;20.80;86.90
20349;DHT22;10332;50.208;18.988;2022-07-29T06:25:39;20.90;86.90
20349;DHT22;10332;50.208;18.988;2022-07-29T06:28:07;20.90;86.80
20349;DHT22;10332;50.208;18.988;2022-07-29T06:30:34;21.00;87.20
20349;DHT22;10332;50.208;18.988;2022-07-29T06:33:02;21.10;87.10
20349;DHT22;10332;50.208;18.988;2022-07-29T06:35:33;21.30;86.80
20349;DHT22;10332;50.208;18.988;2022-07-29T06:38:07;21.60;85.70
20349;DHT22;10332;50.208;18.988;2022-07-29T06:40:55;22.00;84.40
20349;DHT22;10332;50.208;18.988;2022-07-29T06:46:19;22.70;80.70
20349;DHT22;10332;50.208;18.988;2022-07-29T06:48:48;22.90;79.30
20349;DHT22;10332;50.208;18.988;2022-07-29T06:51:16;22.90;78.80
20349;DHT22;10332;50.208;18.988;2022-07-29T06:53:50;22.90;78.80
20349;DHT22;10332;50.208;18.988;2022-07-29T06:56:32;23.00;78.50
20349;DHT22;10332;50.208;18.988;2022-07-29T06:59:09;23.10;78.50
20349;DHT22;10332;50.208;18.988;2022-07-29T07:01:42;23.30;77.50
20349;DHT22;10332;50.208;18.988;2022-07-29T07:04:10;23.40;76.90
20349;DHT22;10332;50.208;18.988;2022-07-29T07:06:39;23.40;76.60
20349;DHT22;10332;50.208;18.988;2022-07-29T07:09:06;23.40;76.90
20349;DHT22;10332;50.208;18.988;2022-07-29T07:11:34;23.40;76.50
20349;DHT22;10332;50.208;18.988;2022-07-29T07:14:01;23.60;76.90
20349;DHT22;10332;50.208;18.988;2022-07-29T07:16:30;23.60;75.40
20349;DHT22;10332;50.208;18.988;2022-07-29T07:18:59;23.70;75.70
20349;DHT22;10332;50.208;18.988;2022-07-29T07:21:26;23.90;75.30
20349;DHT22;10332;50.208;18.988;2022-07-29T07:23:56;23.90;74.70
20349;DHT22;10332;50.208;18.988;2022-07-29T07:26:25;24.00;73.80
20349;DHT22;10332;50.208;18.988;2022-07-29T07:28:53;24.20;73.40
20349;DHT22;10332;50.208;18.988;2022-07-29T07:31:20;24.30;72.50
20349;DHT22;10332;50.208;18.988;2022-07-29T07:33:48;24.50;71.90
20349;DHT22;10332;50.208;18.988;2022-07-29T07:36:15;24.60;70.90
20349;DHT22;10332;50.208;18.988;2022-07-29T07:38:42;24.70;70.40
20349;DHT22;10332;50.208;18.988;2022-07-29T07:41:09;24.80;69.70
20349;DHT22;10332;50.208;18.988;2022-07-29T07:43:37;25.00;68.80
20349;DHT22;10332;50.208;18.988;2022-07-29T07:46:04;25.10;68.50
20349;DHT22;10332;50.208;18.988;2022-07-29T07:48:32;25.30;67.10
20349;DHT22;10332;50.208;18.988;2022-07-29T07:51:02;25.50;66.10
20349;DHT22;10332;50.208;18.988;2022-07-29T07:53:29;25.60;64.80
20349;DHT22;10332;50.208;18.988;2022-07-29T07:55:58;25.80;64.40
20349;DHT22;10332;50.208;18.988;2022-07-29T07:58:37;25.90;62.80
20349;DHT22;10332;50.208;18.988;2022-07-29T08:01:06;26.30;61.50
20349;DHT22;10332;50.208;18.988;2022-07-29T08:03:33;26.70;59.50
20349;DHT22;10332;50.208;18.988;2022-07-29T08:06:03;27.20;57.30
20349;DHT22;10332;50.208;18.988;2022-07-29T08:08:31;27.30;54.80
20349;DHT22;10332;50.208;18.988;2022-07-29T08:10:58;27.40;52.70
20349;DHT22;10332;50.208;18.988;2022-07-29T08:13:32;27.30;52.80
20349;DHT22;10332;50.208;18.988;2022-07-29T08:16:00;27.20;52.80
20349;DHT22;10332;50.208;18.988;2022-07-29T08:18:30;27.10;53.70
20349;DHT22;10332;50.208;18.988;2022-07-29T08:20:58;27.00;54.00
20349;DHT22;10332;50.208;18.988;2022-07-29T08:23:26;26.90;53.70
20349;DHT22;10332;50.208;18.988;2022-07-29T08:26:14;26.90;54.60
20349;DHT22;10332;50.208;18.988;2022-07-29T08:28:43;27.00;55.00
20349;DHT22;10332;50.208;18.988;2022-07-29T08:31:16;27.10;54.30
20349;DHT22;10332;50.208;18.988;2022-07-29T08:33:44;27.10;54.00
20349;DHT22;10332;50.208;18.988;2022-07-29T08:36:12;27.20;52.80
20349;DHT22;10332;50.208;18.988;2022-07-29T08:38:40;27.30;53.50
20349;DHT22;10332;50.208;18.988;2022-07-29T08:41:07;27.30;51.10
20349;DHT22;10332;50.208;18.988;2022-07-29T08:43:34;27.40;50.70
20349;DHT22;10332;50.208;18.988;2022-07-29T08:46:04;27.40;49.90
20349;DHT22;10332;50.208;18.988;2022-07-29T08:48:32;27.60;49.80
20349;DHT22;10332;50.208;18.988;2022-07-29T08:51:01;27.70;49.40
20349;DHT22;10332;50.208;18.988;2022-07-29T08:53:30;28.00;50.10
20349;DHT22;10332;50.208;18.988;2022-07-29T08:55:59;28.20;48.10
20349;DHT22;10332;50.208;18.988;2022-07-29T08:58:31;28.50;46.00
20349;DHT22;10332;50.208;18.988;2022-07-29T09:01:04;28.80;44.90
20349;DHT22;10332;50.208;18.988;2022-07-29T09:03:39;29.20;44.00
20349;DHT22;10332;50.208;18.988;2022-07-29T09:06:08;29.60;38.40
20349;DHT22;10332;50.208;18.988;2022-07-29T09:08:36;30.00;36.40
20349;DHT22;10332;50.208;18.988;2022-07-29T09:11:03;30.30;31.80
20349;DHT22;10332;50.208;18.988;2022-07-29T09:13:31;30.50;28.20
20349;DHT22;10332;50.208;18.988;2022-07-29T09:15:59;30.50;26.50
20349;DHT22;10332;50.208;18.988;2022-07-29T09:18:35;30.50;25.90
20349;DHT22;10332;50.208;18.988;2022-07-29T09:21:06;30.40;25.40
20349;DHT22;10332;50.208;18.988;2022-07-29T09:24:13;30.50;24.50
20349;DHT22;10332;50.208;18.988;2022-07-29T09:26:42;30.80;23.60
20349;DHT22;10332;50.208;18.988;2022-07-29T09:29:16;31.00;23.40
20349;DHT22;10332;50.208;18.988;2022-07-29T09:31:47;31.20;20.90
20349;DHT22;10332;50.208;18.988;2022-07-29T09:34:22;31.40;19.00
20349;DHT22;10332;50.208;18.988;2022-07-29T09:36:52;33.20;15.80
20349;DHT22;10332;50.208;18.988;2022-07-29T09:39:36;35.90;7.50
20349;DHT22;10332;50.208;18.988;2022-07-29T09:42:13;38.50;1.00
20349;DHT22;10332;50.208;18.988;2022-07-29T09:44:47;40.80;1.00
20349;DHT22;10332;50.208;18.988;2022-07-29T09:47:18;43.50;1.00
20349;DHT22;10332;50.208;18.988;2022-07-29T09:49:55;45.40;1.00
20349;DHT22;10332;50.208;18.988;2022-07-29T09:52:28;47.30;1.00
20349;DHT22;10332;50.208;18.988;2022-07-29T09:55:08;49.20;1.00
20349;DHT22;10332;50.208;18.988;2022-07-29T09:57:44;50.60;1.00
20349;DHT22;10332;50.208;18.988;2022-07-29T10:00:17;52.00;1.00
20349;DHT22;10332;50.208;18.988;2022-07-29T10:02:47;52.10;1.00
20349;DHT22;10332;50.208;18.988;2022-07-29T10:05:25;52.10;1.00
20349;DHT22;10332;50.208;18.988;2022-07-29T10:08:02;52.40;1.00
20349;DHT22;10332;50.208;18.988;2022-07-29T10:10:33;51.30;1.00
20349;DHT22;10332;50.208;18.988;2022-07-29T10:13:12;49.60;1.00
20349;DHT22;10332;50.208;18.988;2022-07-29T10:15:44;48.10;1.00
20349;DHT22;10332;50.208;18.988;2022-07-29T10:18:20;47.50;1.00
20349;DHT22;10332;50.208;18.988;2022-07-29T10:20:48;46.10;1.00
20349;DHT22;10332;50.208;18.988;2022-07-29T10:23:22;44.50;1.00
20349;DHT22;10332;50.208;18.988;2022-07-29T10:25:51;43.70;1.00
20349;DHT22;10332;50.208;18.988;2022-07-29T10:28:18;43.80;1.00
20349;DHT22;10332;50.208;18.988;2022-07-29T10:30:46;46.40;1.00
20349;DHT22;10332;50.208;18.988;2022-07-29T10:39:38;52.20;1.00
20349;DHT22;10332;50.208;18.988;2022-07-29T10:42:21;52.80;1.00
20349;DHT22;10332;50.208;18.988;2022-07-29T10:45:02;53.70;1.00
20349;DHT22;10332;50.208;18.988;2022-07-29T10:47:31;52.80;1.00
20349;DHT22;10332;50.208;18.988;2022-07-29T10:50:04;50.70;1.00
20349;DHT22;10332;50.208;18.988;2022-07-29T10:55:35;46.20;1.00
20349;DHT22;10332;50.208;18.988;2022-07-29T11:00:46;43.00;1.00
20349;DHT22;10332;50.208;18.988;2022-07-29T11:06:18;40.70;1.00
20349;DHT22;10332;50.208;18.988;2022-07-29T11:09:15;39.90;1.00
20349;DHT22;10332;50.208;18.988;2022-07-29T11:11:46;39.40;1.00
20349;DHT22;10332;50.208;18.988;2022-07-29T11:15:03;38.50;1.00
20349;DHT22;10332;50.208;18.988;2022-07-29T11:20:56;37.10;1.00
20349;DHT22;10332;50.208;18.988;2022-07-29T11:23:29;36.50;1.00
20349;DHT22;10332;50.208;18.988;2022-07-29T11:31:32;35.40;1.00
20349;DHT22;10332;50.208;18.988;2022-07-29T11:34:35;35.20;1.00
20349;DHT22;10332;50.208;18.988;2022-07-29T11:39:40;35.20;1.00
20349;DHT22;10332;50.208;18.988;2022-07-29T11:48:05;35.50;1.00
20349;DHT22;10332;50.208;18.988;2022-07-29T11:50:53;35.80;1.00
20349;DHT22;10332;50.208;18.988;2022-07-29T11:53:20;36.00;1.00
20349;DHT22;10332;50.208;18.988;2022-07-29T11:55:54;35.90;1.00
20349;DHT22;10332;50.208;18.988;2022-07-29T11:58:24;36.00;1.00
20349;DHT22;10332;50.208;18.988;2022-07-29T12:00:53;36.10;1.00
20349;DHT22;10332;50.208;18.988;2022-07-29T12:03:26;36.30;1.00
20349;DHT22;10332;50.208;18.988;2022-07-29T12:06:12;36.40;1.00
20349;DHT22;10332;50.208;18.988;2022-07-29T12:08:42;36.30;1.00
20349;DHT22;10332;50.208;18.988;2022-07-29T12:11:18;36.10;1.00
20349;DHT22;10332;50.208;18.988;2022-07-29T12:13:56;35.90;1.00
20349;DHT22;10332;50.208;18.988;2022-07-29T12:16:35;35.60;1.00
20349;DHT22;10332;50.208;18.988;2022-07-29T12:19:04;35.40;1.00
20349;DHT22;10332;50.208;18.988;2022-07-29T12:21:53;35.30;1.00
20349;DHT22;10332;50.208;18.988;2022-07-29T12:24:25;35.10;1.00
20349;DHT22;10332;50.208;18.988;2022-07-29T12:26:55;34.90;1.00
20349;DHT22;10332;50.208;18.988;2022-07-29T12:29:24;34.80;1.00
20349;DHT22;10332;50.208;18.988;2022-07-29T12:32:03;34.80;1.00
20349;DHT22;10332;50.208;18.988;2022-07-29T12:34:45;34.90;1.00
20349;DHT22;10332;50.208;18.988;2022-07-29T12:37:13;34.90;1.00
20349;DHT22;10332;50.208;18.988;2022-07-29T12:39:40;34.90;1.00
20349;DHT22;10332;50.208;18.988;2022-07-29T12:42:13;34.90;1.00
20349;DHT22;10332;50.208;18.988;2022-07-29T12:44:49;34.70;1.00
20349;DHT22;10332;50.208;18.988;2022-07-29T12:47:19;34.60;1.00
20349;DHT22;10332;50.208;18.988;2022-07-29T12:49:48;34.50;1.00
20349;DHT22;10332;50.208;18.988;2022-07-29T12:54:55;34.40;1.00
20349;DHT22;10332;50.208;18.988;2022-07-29T12:57:23;34.40;1.00
20349;DHT22;10332;50.208;18.988;2022-07-29T13:00:09;34.40;1.00
20349;DHT22;10332;50.208;18.988;2022-07-29T13:02:41;34.50;1.00
20349;DHT22;10332;50.208;18.988;2022-07-29T13:05:10;34.60;1.00
20349;DHT22;10332;50.208;18.988;2022-07-29T13:07:39;34.80;1.00
20349;DHT22;10332;50.208;18.988;2022-07-29T13:10:23;35.10;1.00
20349;DHT22;10332;50.208;18.988;2022-07-29T13:13:10;35.20;1.00
20349;DHT22;10332;50.208;18.988;2022-07-29T13:15:42;35.20;1.00
20349;DHT22;10332;50.208;18.988;2022-07-29T13:18:35;35.10;1.00
20349;DHT22;10332;50.208;18.988;2022-07-29T13:21:14;35.00;1.00
20349;DHT22;10332;50.208;18.988;2022-07-29T13:23:44;34.90;1.00
20349;DHT22;10332;50.208;18.988;2022-07-29T13:26:12;34.70;1.00
20349;DHT22;10332;50.208;18.988;2022-07-29T13:28:39;34.80;1.00
20349;DHT22;10332;50.208;18.988;2022-07-29T13:31:10;35.10;1.00
20349;DHT22;10332;50.208;18.988;2022-07-29T13:33:38;35.20;1.00
20349;DHT22;10332;50.208;18.988;2022-07-29T13:36:05;35.50;1.00
20349;DHT22;10332;50.208;18.988;2022-07-29T13:38:33;35.50;1.00
20349;DHT22;10332;50.208;18.988;2022-07-29T13:41:01;35.60;1.00
20349;DHT22;10332;50.208;18.988;2022-07-29T13:43:29;35.60;1.00
20349;DHT22;10332;50.208;18.988;2022-07-29T13:46:05;35.60;1.00
20349;DHT22;10332;50.208;18.988;2022-07-29T13:48:32;35.30;1.00
20349;DHT22;10332;50.208;18.988;2022-07-29T13:51:00;35.10;1.00
20349;DHT22;10332;50.208;18.988;2022-07-29T13:53:28;35.10;1.00
20349;DHT22;10332;50.208;18.988;2022-07-29T13:55:55;35.00;1.00
20349;DHT22;10332;50.208;18.988;2022-07-29T13:58:23;34.90;1.00
20349;DHT22;10332;50.208;18.988;2022-07-29T14:00:50;34.80;1.00
20349;DHT22;10332;50.208;18.988;2022-07-29T14:03:19;34.70;1.00
20349;DHT22;10332;50.208;18.988;2022-07-29T14:05:47;34.40;1.00
20349;DHT22;10332;50.208;18.988;2022-07-29T14:08:14;34.20;1.00
20349;DHT22;10332;50.208;18.988;2022-07-29T14:10:42;34.00;1.00
20349;DHT22;10332;50.208;18.988;2022-07-29T14:13:09;33.90;1.00
20349;DHT22;10332;50.208;18.988;2022-07-29T14:15:51;33.60;1.00
20349;DHT22;10332;50.208;18.988;2022-07-29T14:18:19;33.50;1.00
20349;DHT22;10332;50.208;18.988;2022-07-29T14:20:46;33.40;1.00
20349;DHT22;10332;50.208;18.988;2022-07-29T14:23:14;33.20;1.00
20349;DHT22;10332;50.208;18.988;2022-07-29T14:25:42;32.90;1.00
20349;DHT22;10332;50.208;18.988;2022-07-29T14:28:10;32.70;1.00
20349;DHT22;10332;50.208;18.988;2022-07-29T14:30:40;32.60;1.00
20349;DHT22;10332;50.208;18.988;2022-07-29T14:33:08;32.60;1.00
20349;DHT22;10332;50.208;18.988;2022-07-29T14:35:35;32.40;1.00
20349;DHT22;10332;50.208;18.988;2022-07-29T14:38:02;32.30;1.00
20349;DHT22;10332;50.208;18.988;2022-07-29T14:40:30;32.10;1.00
20349;DHT22;10332;50.208;18.988;2022-07-29T14:42:57;31.80;1.00
20349;DHT22;10332;50.208;18.988;2022-07-29T14:45:25;31.70;1.00
20349;DHT22;10332;50.208;18.988;2022-07-29T14:47:52;31.70;1.00
20349;DHT22;10332;50.208;18.988;2022-07-29T14:50:23;31.70;1.00
20349;DHT22;10332;50.208;18.988;2022-07-29T14:52:59;31.70;1.00
20349;DHT22;10332;50.208;18.988;2022-07-29T14:55:27;31.90;1.00
20349;DHT22;10332;50.208;18.988;2022-07-29T14:57:55;31.90;1.00
20349;DHT22;10332;50.208;18.988;2022-07-29T15:00:35;31.90;1.00
20349;DHT22;10332;50.208;18.988;2022-07-29T15:03:04;31.80;1.00
20349;DHT22;10332;50.208;18.988;2022-07-29T15:05:37;31.70;1.00
20349;DHT22;10332;50.208;18.988;2022-07-29T15:08:05;31.50;1.00
20349;DHT22;10332;50.208;18.988;2022-07-29T15:10:32;31.30;1.00
20349;DHT22;10332;50.208;18.988;2022-07-29T15:12:59;31.00;1.00
20349;DHT22;10332;50.208;18.988;2022-07-29T15:15:27;30.60;1.00
20349;DHT22;10332;50.208;18.988;2022-07-29T15:17:54;30.30;1.00
20349;DHT22;10332;50.208;18.988;2022-07-29T15:20:22;29.90;1.00
20349;DHT22;10332;50.208;18.988;2022-07-29T15:22:52;29.70;1.00
20349;DHT22;10332;50.208;18.988;2022-07-29T15:25:20;29.40;1.00
20349;DHT22;10332;50.208;18.988;2022-07-29T15:27:47;29.20;1.00
20349;DHT22;10332;50.208;18.988;2022-07-29T15:30:19;29.00;1.00
20349;DHT22;10332;50.208;18.988;2022-07-29T15:33:02;28.80;1.00
20349;DHT22;10332;50.208;18.988;2022-07-29T15:35:30;28.60;1.00
20349;DHT22;10332;50.208;18.988;2022-07-29T15:37:58;28.40;1.00
20349;DHT22;10332;50.208;18.988;2022-07-29T15:40:25;28.30;1.00
20349;DHT22;10332;50.208;18.988;2022-07-29T15:42:53;28.20;1.00
20349;DHT22;10332;50.208;18.988;2022-07-29T15:45:20;28.10;1.00
20349;DHT22;10332;50.208;18.988;2022-07-29T15:47:48;28.10;1.00
20349;DHT22;10332;50.208;18.988;2022-07-29T15:50:15;28.20;1.00
20349;DHT22;10332;50.208;18.988;2022-07-29T15:52:43;28.20;1.00
20349;DHT22;10332;50.208;18.988;2022-07-29T15:55:10;28.20;1.00
20349;DHT22;10332;50.208;18.988;2022-07-29T15:57:37;28.30;1.00
20349;DHT22;10332;50.208;18.988;2022-07-29T16:00:07;28.40;1.00
20349;DHT22;10332;50.208;18.988;2022-07-29T16:02:35;28.40;1.00
20349;DHT22;10332;50.208;18.988;2022-07-29T16:05:02;28.40;1.00
20349;DHT22;10332;50.208;18.988;2022-07-29T16:07:35;28.50;1.00
20349;DHT22;10332;50.208;18.988;2022-07-29T16:10:04;28.40;1.00
20349;DHT22;10332;50.208;18.988;2022-07-29T16:12:33;28.40;1.00
20349;DHT22;10332;50.208;18.988;2022-07-29T16:15:01;28.30;1.00
20349;DHT22;10332;50.208;18.988;2022-07-29T16:17:35;28.10;1.00
20349;DHT22;10332;50.208;18.988;2022-07-29T16:20:05;27.90;1.00
20349;DHT22;10332;50.208;18.988;2022-07-29T16:22:33;27.80;1.00
20349;DHT22;10332;50.208;18.988;2022-07-29T16:25:01;27.60;1.00
20349;DHT22;10332;50.208;18.988;2022-07-29T16:27:29;27.30;1.00
20349;DHT22;10332;50.208;18.988;2022-07-29T16:30:05;27.10;1.00
20349;DHT22;10332;50.208;18.988;2022-07-29T16:32:35;26.80;1.00
20349;DHT22;10332;50.208;18.988;2022-07-29T16:35:03;26.60;1.00
20349;DHT22;10332;50.208;18.988;2022-07-29T16:37:31;26.40;1.00
20349;DHT22;10332;50.208;18.988;2022-07-29T16:40:05;26.20;1.00